sensor_id;sensor_type;location;lat;lon;timestamp;P1;durP1;ratioP1;P2;durP2;ratioP2
19016;SDS011;9641;51.494;6.670;2022-09-09T00:01:49;1.93;;;1.20;;
19016;SDS011;9641;51.494;6.670;2022-09-09T00:04:23;1.60;;;0.87;;
19016;SDS011;9641;51.494;6.670;2022-09-09T00:06:59;1.40;;;0.70;;
19016;SDS011;9641;51.494;6.670;2022-09-09T00:09:31;0.93;;;0.67;;
19016;SDS011;9641;51.494;6.670;2022-09-09T00:12:08;1.13;;;0.87;;
19016;SDS011;9641;51.494;6.670;2022-09-09T00:14:42;4.00;;;0.70;;
19016;SDS011;9641;51.494;6.670;2022-09-09T00:17:18;4.20;;;0.83;;
19016;SDS011;9641;51.494;6.670;2022-09-09T00:19:53;2.50;;;0.70;;
19016;SDS011;9641;51.494;6.670;2022-09-09T00:22:27;1.70;;;0.70;;
19016;SDS011;9641;51.494;6.670;2022-09-09T00:24:58;2.83;;;0.80;;
19016;SDS011;9641;51.494;6.670;2022-09-09T00:27:36;2.80;;;0.70;;
19016;SDS011;9641;51.494;6.670;2022-09-09T00:30:16;2.40;;;0.60;;
19016;SDS011;9641;51.494;6.670;2022-09-09T00:32:48;2.27;;;0.70;;
19016;SDS011;9641;51.494;6.670;2022-09-09T00:35:18;1.10;;;0.80;;
19016;SDS011;9641;51.494;6.670;2022-09-09T00:37:50;1.40;;;0.70;;
19016;SDS011;9641;51.494;6.670;2022-09-09T00:40:22;3.50;;;0.87;;
19016;SDS011;9641;51.494;6.670;2022-09-09T00:42:54;1.97;;;0.83;;
19016;SDS011;9641;51.494;6.670;2022-09-09T00:45:37;0.77;;;0.60;;
19016;SDS011;9641;51.494;6.670;2022-09-09T00:48:27;0.73;;;0.70;;
19016;SDS011;9641;51.494;6.670;2022-09-09T00:51:03;2.33;;;0.80;;
19016;SDS011;9641;51.494;6.670;2022-09-09T00:53:38;1.13;;;0.80;;
19016;SDS011;9641;51.494;6.670;2022-09-09T00:56:25;2.40;;;1.17;;
19016;SDS011;9641;51.494;6.670;2022-09-09T00:58:59;2.10;;;0.90;;
19016;SDS011;9641;51.494;6.670;2022-09-09T01:01:34;2.60;;;1.10;;
19016;SDS011;9641;51.494;6.670;2022-09-09T01:04:01;2.07;;;1.10;;
19016;SDS011;9641;51.494;6.670;2022-09-09T01:06:36;2.80;;;0.90;;
19016;SDS011;9641;51.494;6.670;2022-09-09T01:09:07;2.47;;;0.93;;
19016;SDS011;9641;51.494;6.670;2022-09-09T01:11:43;1.50;;;1.07;;
19016;SDS011;9641;51.494;6.670;2022-09-09T01:14:19;1.27;;;0.97;;
19016;SDS011;9641;51.494;6.670;2022-09-09T01:16:59;2.23;;;0.80;;
19016;SDS011;9641;51.494;6.670;2022-09-09T01:19:36;1.37;;;0.90;;
19016;SDS011;9641;51.494;6.670;2022-09-09T01:22:15;5.13;;;1.27;;
19016;SDS011;9641;51.494;6.670;2022-09-09T01:24:53;2.40;;;1.10;;
19016;SDS011;9641;51.494;6.670;2022-09-09T01:28:13;4.00;;;1.30;;
19016;SDS011;9641;51.494;6.670;2022-09-09T01:30:46;2.27;;;1.00;;
19016;SDS011;9641;51.494;6.670;2022-09-09T01:33:16;1.97;;;1.10;;
19016;SDS011;9641;51.494;6.670;2022-09-09T01:35:45;1.20;;;1.10;;
19016;SDS011;9641;51.494;6.670;2022-09-09T01:38:17;1.80;;;1.30;;
19016;SDS011;9641;51.494;6.670;2022-09-09T01:40:47;3.37;;;1.20;;
19016;SDS011;9641;51.494;6.670;2022-09-09T01:43:19;2.43;;;1.30;;
19016;SDS011;9641;51.494;6.670;2022-09-09T01:45:48;3.03;;;1.43;;
19016;SDS011;9641;51.494;6.670;2022-09-09T01:48:19;1.97;;;1.53;;
19016;SDS011;9641;51.494;6.670;2022-09-09T01:50:59;2.40;;;2.07;;
19016;SDS011;9641;51.494;6.670;2022-09-09T01:53:26;2.97;;;2.70;;
19016;SDS011;9641;51.494;6.670;2022-09-09T01:55:56;5.50;;;2.90;;
19016;SDS011;9641;51.494;6.670;2022-09-09T01:58:36;2.77;;;2.57;;
19016;SDS011;9641;51.494;6.670;2022-09-09T02:01:12;5.03;;;2.83;;
19016;SDS011;9641;51.494;6.670;2022-09-09T02:03:47;3.53;;;3.10;;
19016;SDS011;9641;51.494;6.670;2022-09-09T02:06:22;3.30;;;2.80;;
19016;SDS011;9641;51.494;6.670;2022-09-09T02:08:59;3.53;;;3.10;;
19016;SDS011;9641;51.494;6.670;2022-09-09T02:11:31;3.50;;;2.20;;
19016;SDS011;9641;51.494;6.670;2022-09-09T02:14:08;5.50;;;2.60;;
19016;SDS011;9641;51.494;6.670;2022-09-09T02:16:44;3.53;;;2.50;;
19016;SDS011;9641;51.494;6.670;2022-09-09T02:19:18;5.30;;;2.30;;
19016;SDS011;9641;51.494;6.670;2022-09-09T02:22:02;4.00;;;2.50;;
19016;SDS011;9641;51.494;6.670;2022-09-09T02:24:31;2.30;;;2.10;;
19016;SDS011;9641;51.494;6.670;2022-09-09T02:27:14;2.43;;;2.23;;
19016;SDS011;9641;51.494;6.670;2022-09-09T02:29:45;4.97;;;2.23;;
19016;SDS011;9641;51.494;6.670;2022-09-09T02:32:14;2.83;;;2.10;;
19016;SDS011;9641;51.494;6.670;2022-09-09T02:34:46;2.00;;;1.90;;
19016;SDS011;9641;51.494;6.670;2022-09-09T02:37:16;2.30;;;2.10;;
19016;SDS011;9641;51.494;6.670;2022-09-09T02:39:50;4.60;;;2.00;;
19016;SDS011;9641;51.494;6.670;2022-09-09T02:42:19;4.17;;;2.50;;
19016;SDS011;9641;51.494;6.670;2022-09-09T02:44:51;2.83;;;1.60;;
19016;SDS011;9641;51.494;6.670;2022-09-09T02:47:25;2.07;;;1.67;;
19016;SDS011;9641;51.494;6.670;2022-09-09T02:50:07;2.10;;;1.90;;
19016;SDS011;9641;51.494;6.670;2022-09-09T02:52:46;3.03;;;1.37;;
19016;SDS011;9641;51.494;6.670;2022-09-09T02:55:23;1.30;;;1.20;;
19016;SDS011;9641;51.494;6.670;2022-09-09T02:58:05;2.43;;;1.10;;
19016;SDS011;9641;51.494;6.670;2022-09-09T03:00:37;4.10;;;1.10;;
19016;SDS011;9641;51.494;6.670;2022-09-09T03:03:06;1.70;;;1.20;;
19016;SDS011;9641;51.494;6.670;2022-09-09T03:05:35;1.63;;;1.30;;
19016;SDS011;9641;51.494;6.670;2022-09-09T03:08:03;3.03;;;1.33;;
19016;SDS011;9641;51.494;6.670;2022-09-09T03:10:31;1.77;;;1.20;;
19016;SDS011;9641;51.494;6.670;2022-09-09T03:12:58;2.70;;;1.30;;
19016;SDS011;9641;51.494;6.670;2022-09-09T03:15:29;3.10;;;1.47;;
19016;SDS011;9641;51.494;6.670;2022-09-09T03:17:59;3.80;;;1.00;;
19016;SDS011;9641;51.494;6.670;2022-09-09T03:20:27;3.47;;;1.27;;
19016;SDS011;9641;51.494;6.670;2022-09-09T03:22:55;3.07;;;1.43;;
19016;SDS011;9641;51.494;6.670;2022-09-09T03:25:23;2.33;;;0.93;;
19016;SDS011;9641;51.494;6.670;2022-09-09T03:27:51;2.50;;;1.30;;
19016;SDS011;9641;51.494;6.670;2022-09-09T03:30:20;1.33;;;1.10;;
19016;SDS011;9641;51.494;6.670;2022-09-09T03:32:48;2.70;;;1.20;;
19016;SDS011;9641;51.494;6.670;2022-09-09T03:35:16;5.67;;;1.43;;
19016;SDS011;9641;51.494;6.670;2022-09-09T03:37:44;3.67;;;1.40;;
19016;SDS011;9641;51.494;6.670;2022-09-09T03:40:12;2.50;;;0.90;;
19016;SDS011;9641;51.494;6.670;2022-09-09T03:42:44;4.90;;;1.30;;
19016;SDS011;9641;51.494;6.670;2022-09-09T03:45:10;4.33;;;1.13;;
19016;SDS011;9641;51.494;6.670;2022-09-09T03:47:39;2.93;;;1.20;;
19016;SDS011;9641;51.494;6.670;2022-09-09T03:50:06;5.13;;;1.50;;
19016;SDS011;9641;51.494;6.670;2022-09-09T03:52:40;2.63;;;1.07;;
19016;SDS011;9641;51.494;6.670;2022-09-09T03:55:14;3.63;;;1.00;;
19016;SDS011;9641;51.494;6.670;2022-09-09T03:57:41;2.63;;;1.10;;
19016;SDS011;9641;51.494;6.670;2022-09-09T04:00:09;1.70;;;1.20;;
19016;SDS011;9641;51.494;6.670;2022-09-09T04:02:43;2.13;;;1.03;;
19016;SDS011;9641;51.494;6.670;2022-09-09T04:05:14;2.37;;;1.00;;
19016;SDS011;9641;51.494;6.670;2022-09-09T04:07:44;2.47;;;1.10;;
19016;SDS011;9641;51.494;6.670;2022-09-09T04:10:11;5.00;;;1.50;;
19016;SDS011;9641;51.494;6.670;2022-09-09T04:12:39;6.43;;;1.37;;
19016;SDS011;9641;51.494;6.670;2022-09-09T04:15:06;1.30;;;0.97;;
19016;SDS011;9641;51.494;6.670;2022-09-09T04:17:35;5.57;;;1.27;;
19016;SDS011;9641;51.494;6.670;2022-09-09T04:20:03;1.60;;;1.43;;
19016;SDS011;9641;51.494;6.670;2022-09-09T04:22:30;3.80;;;1.17;;
19016;SDS011;9641;51.494;6.670;2022-09-09T04:25:00;4.67;;;1.43;;
19016;SDS011;9641;51.494;6.670;2022-09-09T04:27:28;5.60;;;2.33;;
19016;SDS011;9641;51.494;6.670;2022-09-09T04:29:55;8.93;;;1.57;;
19016;SDS011;9641;51.494;6.670;2022-09-09T04:32:24;6.57;;;1.40;;
19016;SDS011;9641;51.494;6.670;2022-09-09T04:34:52;2.77;;;1.07;;
19016;SDS011;9641;51.494;6.670;2022-09-09T04:37:20;3.63;;;1.37;;
19016;SDS011;9641;51.494;6.670;2022-09-09T04:39:47;2.27;;;1.20;;
19016;SDS011;9641;51.494;6.670;2022-09-09T04:42:16;5.93;;;1.60;;
19016;SDS011;9641;51.494;6.670;2022-09-09T04:44:45;3.30;;;1.00;;
19016;SDS011;9641;51.494;6.670;2022-09-09T04:47:12;1.53;;;1.30;;
19016;SDS011;9641;51.494;6.670;2022-09-09T04:49:39;4.37;;;1.30;;
19016;SDS011;9641;51.494;6.670;2022-09-09T04:52:06;4.53;;;1.43;;
19016;SDS011;9641;51.494;6.670;2022-09-09T04:54:35;3.47;;;1.30;;
19016;SDS011;9641;51.494;6.670;2022-09-09T04:57:02;2.80;;;1.00;;
19016;SDS011;9641;51.494;6.670;2022-09-09T04:59:30;6.07;;;1.40;;
19016;SDS011;9641;51.494;6.670;2022-09-09T05:02:00;1.87;;;1.20;;
19016;SDS011;9641;51.494;6.670;2022-09-09T05:04:28;1.43;;;1.17;;
19016;SDS011;9641;51.494;6.670;2022-09-09T05:06:55;4.77;;;1.00;;
19016;SDS011;9641;51.494;6.670;2022-09-09T05:09:22;4.47;;;1.30;;
19016;SDS011;9641;51.494;6.670;2022-09-09T05:11:50;1.87;;;1.10;;
19016;SDS011;9641;51.494;6.670;2022-09-09T05:14:25;3.83;;;1.40;;
19016;SDS011;9641;51.494;6.670;2022-09-09T05:16:54;1.77;;;1.03;;
19016;SDS011;9641;51.494;6.670;2022-09-09T05:19:23;3.30;;;1.23;;
19016;SDS011;9641;51.494;6.670;2022-09-09T05:21:52;2.93;;;1.40;;
19016;SDS011;9641;51.494;6.670;2022-09-09T05:24:25;2.03;;;1.30;;
19016;SDS011;9641;51.494;6.670;2022-09-09T05:26:54;3.83;;;1.23;;
19016;SDS011;9641;51.494;6.670;2022-09-09T05:29:24;5.17;;;1.20;;
19016;SDS011;9641;51.494;6.670;2022-09-09T05:31:51;4.03;;;1.10;;
19016;SDS011;9641;51.494;6.670;2022-09-09T05:34:22;4.43;;;1.27;;
19016;SDS011;9641;51.494;6.670;2022-09-09T05:36:50;8.33;;;1.47;;
19016;SDS011;9641;51.494;6.670;2022-09-09T05:39:20;3.80;;;1.60;;
19016;SDS011;9641;51.494;6.670;2022-09-09T05:41:47;3.67;;;1.50;;
19016;SDS011;9641;51.494;6.670;2022-09-09T05:44:14;7.63;;;1.60;;
19016;SDS011;9641;51.494;6.670;2022-09-09T05:46:42;3.40;;;1.40;;
19016;SDS011;9641;51.494;6.670;2022-09-09T05:49:11;6.50;;;1.50;;
19016;SDS011;9641;51.494;6.670;2022-09-09T05:51:43;2.90;;;1.20;;
19016;SDS011;9641;51.494;6.670;2022-09-09T05:54:15;6.27;;;1.63;;
19016;SDS011;9641;51.494;6.670;2022-09-09T05:56:47;3.03;;;1.20;;
19016;SDS011;9641;51.494;6.670;2022-09-09T05:59:14;5.07;;;1.50;;
19016;SDS011;9641;51.494;6.670;2022-09-09T06:01:41;4.13;;;1.30;;
19016;SDS011;9641;51.494;6.670;2022-09-09T06:04:20;4.30;;;1.67;;
19016;SDS011;9641;51.494;6.670;2022-09-09T06:06:49;8.67;;;1.83;;
19016;SDS011;9641;51.494;6.670;2022-09-09T06:09:23;7.63;;;1.40;;
19016;SDS011;9641;51.494;6.670;2022-09-09T06:11:51;7.70;;;2.10;;
19016;SDS011;9641;51.494;6.670;2022-09-09T06:14:20;8.40;;;1.60;;
19016;SDS011;9641;51.494;6.670;2022-09-09T06:16:48;3.80;;;1.30;;
19016;SDS011;9641;51.494;6.670;2022-09-09T06:19:19;2.93;;;1.53;;
19016;SDS011;9641;51.494;6.670;2022-09-09T06:21:47;3.87;;;1.60;;
19016;SDS011;9641;51.494;6.670;2022-09-09T06:24:16;7.70;;;1.47;;
19016;SDS011;9641;51.494;6.670;2022-09-09T06:26:45;5.10;;;1.60;;
19016;SDS011;9641;51.494;6.670;2022-09-09T06:29:17;5.90;;;1.77;;
19016;SDS011;9641;51.494;6.670;2022-09-09T06:31:44;3.97;;;1.47;;
19016;SDS011;9641;51.494;6.670;2022-09-09T06:34:15;2.77;;;1.30;;
19016;SDS011;9641;51.494;6.670;2022-09-09T06:36:46;2.60;;;1.20;;
19016;SDS011;9641;51.494;6.670;2022-09-09T06:39:13;5.50;;;1.47;;
19016;SDS011;9641;51.494;6.670;2022-09-09T06:41:42;4.37;;;1.27;;
19016;SDS011;9641;51.494;6.670;2022-09-09T06:44:39;6.57;;;1.43;;
19016;SDS011;9641;51.494;6.670;2022-09-09T06:47:11;3.97;;;1.23;;
19016;SDS011;9641;51.494;6.670;2022-09-09T06:49:40;4.60;;;1.97;;
19016;SDS011;9641;51.494;6.670;2022-09-09T06:52:09;5.87;;;1.70;;
19016;SDS011;9641;51.494;6.670;2022-09-09T06:54:37;5.23;;;1.67;;
19016;SDS011;9641;51.494;6.670;2022-09-09T06:57:06;1.70;;;0.80;;
19016;SDS011;9641;51.494;6.670;2022-09-09T06:59:33;3.07;;;1.00;;
19016;SDS011;9641;51.494;6.670;2022-09-09T07:02:02;6.67;;;1.43;;
19016;SDS011;9641;51.494;6.670;2022-09-09T07:04:29;3.53;;;1.27;;
19016;SDS011;9641;51.494;6.670;2022-09-09T07:06:56;4.80;;;1.23;;
19016;SDS011;9641;51.494;6.670;2022-09-09T07:09:24;6.33;;;1.20;;
19016;SDS011;9641;51.494;6.670;2022-09-09T07:11:52;3.47;;;1.10;;
19016;SDS011;9641;51.494;6.670;2022-09-09T07:14:24;5.37;;;1.40;;
19016;SDS011;9641;51.494;6.670;2022-09-09T07:16:55;5.27;;;1.53;;
19016;SDS011;9641;51.494;6.670;2022-09-09T07:19:23;7.67;;;1.70;;
19016;SDS011;9641;51.494;6.670;2022-09-09T07:21:52;2.73;;;1.00;;
19016;SDS011;9641;51.494;6.670;2022-09-09T07:24:22;5.80;;;1.50;;
19016;SDS011;9641;51.494;6.670;2022-09-09T07:26:50;3.07;;;1.20;;
19016;SDS011;9641;51.494;6.670;2022-09-09T07:29:17;4.20;;;1.70;;
19016;SDS011;9641;51.494;6.670;2022-09-09T07:31:45;6.00;;;1.50;;
19016;SDS011;9641;51.494;6.670;2022-09-09T07:34:16;4.90;;;1.30;;
19016;SDS011;9641;51.494;6.670;2022-09-09T07:36:44;7.63;;;1.50;;
19016;SDS011;9641;51.494;6.670;2022-09-09T07:39:12;4.50;;;1.53;;
19016;SDS011;9641;51.494;6.670;2022-09-09T07:41:45;6.03;;;1.30;;
19016;SDS011;9641;51.494;6.670;2022-09-09T07:44:15;4.33;;;1.33;;
19016;SDS011;9641;51.494;6.670;2022-09-09T07:46:48;9.40;;;1.40;;
19016;SDS011;9641;51.494;6.670;2022-09-09T07:49:19;6.43;;;1.40;;
19016;SDS011;9641;51.494;6.670;2022-09-09T07:51:47;3.97;;;1.10;;
19016;SDS011;9641;51.494;6.670;2022-09-09T07:54:16;5.33;;;1.40;;
19016;SDS011;9641;51.494;6.670;2022-09-09T07:56:47;8.30;;;1.70;;
19016;SDS011;9641;51.494;6.670;2022-09-09T07:59:15;4.47;;;1.03;;
19016;SDS011;9641;51.494;6.670;2022-09-09T08:01:45;11.20;;;1.53;;
19016;SDS011;9641;51.494;6.670;2022-09-09T08:04:18;2.53;;;1.10;;
19016;SDS011;9641;51.494;6.670;2022-09-09T08:06:48;2.47;;;1.20;;
19016;SDS011;9641;51.494;6.670;2022-09-09T08:09:19;4.50;;;0.97;;
19016;SDS011;9641;51.494;6.670;2022-09-09T08:11:47;6.80;;;1.00;;
19016;SDS011;9641;51.494;6.670;2022-09-09T08:14:16;2.90;;;1.33;;
19016;SDS011;9641;51.494;6.670;2022-09-09T08:16:45;2.23;;;1.00;;
19016;SDS011;9641;51.494;6.670;2022-09-09T08:19:18;3.40;;;1.10;;
19016;SDS011;9641;51.494;6.670;2022-09-09T08:21:45;5.13;;;1.07;;
19016;SDS011;9641;51.494;6.670;2022-09-09T08:24:14;2.17;;;1.10;;
19016;SDS011;9641;51.494;6.670;2022-09-09T08:26:46;2.17;;;1.10;;
19016;SDS011;9641;51.494;6.670;2022-09-09T08:29:16;6.33;;;1.00;;
19016;SDS011;9641;51.494;6.670;2022-09-09T08:31:46;3.50;;;0.90;;
19016;SDS011;9641;51.494;6.670;2022-09-09T08:34:15;5.93;;;1.20;;
19016;SDS011;9641;51.494;6.670;2022-09-09T08:36:44;3.20;;;1.10;;
19016;SDS011;9641;51.494;6.670;2022-09-09T08:39:13;8.40;;;1.20;;
19016;SDS011;9641;51.494;6.670;2022-09-09T08:41:57;4.33;;;1.10;;
19016;SDS011;9641;51.494;6.670;2022-09-09T08:44:46;4.13;;;1.20;;
19016;SDS011;9641;51.494;6.670;2022-09-09T08:47:28;4.80;;;1.30;;
19016;SDS011;9641;51.494;6.670;2022-09-09T08:50:13;3.63;;;0.70;;
19016;SDS011;9641;51.494;6.670;2022-09-09T08:52:59;3.77;;;0.93;;
19016;SDS011;9641;51.494;6.670;2022-09-09T08:55:35;5.70;;;0.93;;
19016;SDS011;9641;51.494;6.670;2022-09-09T08:58:09;4.30;;;0.90;;
19016;SDS011;9641;51.494;6.670;2022-09-09T09:00:42;8.00;;;1.00;;
19016;SDS011;9641;51.494;6.670;2022-09-09T09:03:19;3.40;;;1.17;;
19016;SDS011;9641;51.494;6.670;2022-09-09T09:05:56;7.20;;;1.00;;
19016;SDS011;9641;51.494;6.670;2022-09-09T09:08:33;4.07;;;1.17;;
19016;SDS011;9641;51.494;6.670;2022-09-09T09:11:07;4.70;;;0.83;;
19016;SDS011;9641;51.494;6.670;2022-09-09T09:13:34;5.87;;;1.23;;
19016;SDS011;9641;51.494;6.670;2022-09-09T09:16:10;3.10;;;1.13;;
19016;SDS011;9641;51.494;6.670;2022-09-09T09:19:00;4.63;;;1.17;;
19016;SDS011;9641;51.494;6.670;2022-09-09T09:21:38;3.33;;;0.93;;
19016;SDS011;9641;51.494;6.670;2022-09-09T09:24:27;4.17;;;1.20;;
19016;SDS011;9641;51.494;6.670;2022-09-09T09:27:07;2.77;;;0.87;;
19016;SDS011;9641;51.494;6.670;2022-09-09T09:29:48;3.57;;;0.93;;
19016;SDS011;9641;51.494;6.670;2022-09-09T09:32:18;4.50;;;0.80;;
19016;SDS011;9641;51.494;6.670;2022-09-09T09:34:48;4.03;;;1.00;;
19016;SDS011;9641;51.494;6.670;2022-09-09T09:37:21;4.53;;;0.90;;
19016;SDS011;9641;51.494;6.670;2022-09-09T09:40:10;4.27;;;1.40;;
19016;SDS011;9641;51.494;6.670;2022-09-09T09:42:46;4.37;;;0.80;;
19016;SDS011;9641;51.494;6.670;2022-09-09T09:45:17;4.87;;;1.20;;
19016;SDS011;9641;51.494;6.670;2022-09-09T09:47:58;3.57;;;1.00;;
19016;SDS011;9641;51.494;6.670;2022-09-09T09:50:28;8.47;;;1.30;;
19016;SDS011;9641;51.494;6.670;2022-09-09T09:52:57;4.03;;;1.10;;
19016;SDS011;9641;51.494;6.670;2022-09-09T09:55:30;4.93;;;1.20;;
19016;SDS011;9641;51.494;6.670;2022-09-09T09:58:00;2.93;;;0.83;;
19016;SDS011;9641;51.494;6.670;2022-09-09T10:00:31;1.97;;;1.10;;
19016;SDS011;9641;51.494;6.670;2022-09-09T10:03:12;2.30;;;0.70;;
19016;SDS011;9641;51.494;6.670;2022-09-09T10:05:46;2.33;;;0.60;;
19016;SDS011;9641;51.494;6.670;2022-09-09T10:08:15;2.73;;;0.80;;
19016;SDS011;9641;51.494;6.670;2022-09-09T10:10:57;3.50;;;1.00;;
19016;SDS011;9641;51.494;6.670;2022-09-09T10:13:32;2.00;;;0.63;;
19016;SDS011;9641;51.494;6.670;2022-09-09T10:16:10;1.35;;;0.80;;
19016;SDS011;9641;51.494;6.670;2022-09-09T10:18:58;3.17;;;0.82;;
19016;SDS011;9641;51.494;6.670;2022-09-09T10:21:32;2.55;;;0.95;;
19016;SDS011;9641;51.494;6.670;2022-09-09T10:24:30;2.35;;;0.80;;
19016;SDS011;9641;51.494;6.670;2022-09-09T10:27:14;3.38;;;1.00;;
19016;SDS011;9641;51.494;6.670;2022-09-09T10:29:53;1.58;;;0.68;;
19016;SDS011;9641;51.494;6.670;2022-09-09T10:32:41;1.85;;;0.60;;
19016;SDS011;9641;51.494;6.670;2022-09-09T10:35:14;3.47;;;0.73;;
19016;SDS011;9641;51.494;6.670;2022-09-09T10:37:52;2.90;;;0.83;;
19016;SDS011;9641;51.494;6.670;2022-09-09T10:40:37;2.23;;;1.00;;
19016;SDS011;9641;51.494;6.670;2022-09-09T10:43:12;1.17;;;0.70;;
19016;SDS011;9641;51.494;6.670;2022-09-09T10:45:48;4.80;;;0.80;;
19016;SDS011;9641;51.494;6.670;2022-09-09T10:48:28;5.63;;;1.13;;
19016;SDS011;9641;51.494;6.670;2022-09-09T10:51:03;4.63;;;1.00;;
19016;SDS011;9641;51.494;6.670;2022-09-09T10:53:46;2.23;;;0.77;;
19016;SDS011;9641;51.494;6.670;2022-09-09T10:56:25;4.37;;;0.70;;
19016;SDS011;9641;51.494;6.670;2022-09-09T10:58:56;2.67;;;0.87;;
19016;SDS011;9641;51.494;6.670;2022-09-09T11:01:28;1.08;;;0.80;;
19016;SDS011;9641;51.494;6.670;2022-09-09T11:04:02;6.38;;;0.88;;
19016;SDS011;9641;51.494;6.670;2022-09-09T11:06:35;4.75;;;0.82;;
19016;SDS011;9641;51.494;6.670;2022-09-09T11:09:13;3.65;;;0.80;;
19016;SDS011;9641;51.494;6.670;2022-09-09T11:11:45;4.57;;;0.70;;
19016;SDS011;9641;51.494;6.670;2022-09-09T11:14:19;2.40;;;0.90;;
19016;SDS011;9641;51.494;6.670;2022-09-09T11:16:56;4.72;;;0.88;;
19016;SDS011;9641;51.494;6.670;2022-09-09T11:19:29;3.10;;;1.08;;
19016;SDS011;9641;51.494;6.670;2022-09-09T11:22:01;1.52;;;0.73;;
19016;SDS011;9641;51.494;6.670;2022-09-09T11:24:31;3.05;;;0.82;;
19016;SDS011;9641;51.494;6.670;2022-09-09T11:27:06;2.05;;;0.90;;
19016;SDS011;9641;51.494;6.670;2022-09-09T11:29:46;3.13;;;0.90;;
19016;SDS011;9641;51.494;6.670;2022-09-09T11:35:43;2.40;;;0.95;;
19016;SDS011;9641;51.494;6.670;2022-09-09T11:38:24;2.83;;;0.68;;
19016;SDS011;9641;51.494;6.670;2022-09-09T11:40:56;2.15;;;0.95;;
19016;SDS011;9641;51.494;6.670;2022-09-09T11:43:28;3.30;;;0.90;;
19016;SDS011;9641;51.494;6.670;2022-09-09T11:46:01;5.80;;;1.05;;
19016;SDS011;9641;51.494;6.670;2022-09-09T11:48:31;2.80;;;0.90;;
19016;SDS011;9641;51.494;6.670;2022-09-09T11:51:03;3.17;;;0.70;;
19016;SDS011;9641;51.494;6.670;2022-09-09T11:53:34;4.78;;;0.95;;
19016;SDS011;9641;51.494;6.670;2022-09-09T11:56:04;5.85;;;1.02;;
19016;SDS011;9641;51.494;6.670;2022-09-09T11:58:38;2.55;;;0.73;;
19016;SDS011;9641;51.494;6.670;2022-09-09T12:07:05;1.23;;;0.68;;
19016;SDS011;9641;51.494;6.670;2022-09-09T12:09:56;1.05;;;0.40;;
19016;SDS011;9641;51.494;6.670;2022-09-09T12:12:30;3.08;;;1.33;;
19016;SDS011;9641;51.494;6.670;2022-09-09T12:17:48;0.98;;;0.68;;
19016;SDS011;9641;51.494;6.670;2022-09-09T12:20:19;1.50;;;0.55;;
19016;SDS011;9641;51.494;6.670;2022-09-09T12:22:51;3.08;;;0.73;;
19016;SDS011;9641;51.494;6.670;2022-09-09T12:25:33;3.60;;;0.60;;
19016;SDS011;9641;51.494;6.670;2022-09-09T12:28:09;5.50;;;0.63;;
19016;SDS011;9641;51.494;6.670;2022-09-09T12:30:45;1.40;;;0.55;;
19016;SDS011;9641;51.494;6.670;2022-09-09T12:33:20;1.80;;;0.63;;
19016;SDS011;9641;51.494;6.670;2022-09-09T12:35:50;1.80;;;0.80;;
19016;SDS011;9641;51.494;6.670;2022-09-09T12:38:23;2.20;;;0.80;;
19016;SDS011;9641;51.494;6.670;2022-09-09T12:40:57;2.00;;;0.77;;
19016;SDS011;9641;51.494;6.670;2022-09-09T12:43:26;1.55;;;0.60;;
19016;SDS011;9641;51.494;6.670;2022-09-09T12:45:56;1.83;;;0.60;;
19016;SDS011;9641;51.494;6.670;2022-09-09T12:51:17;2.88;;;0.60;;
19016;SDS011;9641;51.494;6.670;2022-09-09T12:53:47;1.30;;;0.63;;
19016;SDS011;9641;51.494;6.670;2022-09-09T12:56:18;3.95;;;0.80;;
19016;SDS011;9641;51.494;6.670;2022-09-09T12:58:48;1.05;;;0.63;;
19016;SDS011;9641;51.494;6.670;2022-09-09T13:01:21;2.15;;;0.90;;
19016;SDS011;9641;51.494;6.670;2022-09-09T13:03:51;2.45;;;0.73;;
19016;SDS011;9641;51.494;6.670;2022-09-09T13:06:19;3.50;;;0.90;;
19016;SDS011;9641;51.494;6.670;2022-09-09T13:08:49;2.13;;;1.10;;
19016;SDS011;9641;51.494;6.670;2022-09-09T13:11:18;0.60;;;0.47;;
19016;SDS011;9641;51.494;6.670;2022-09-09T13:13:53;2.75;;;0.60;;
19016;SDS011;9641;51.494;6.670;2022-09-09T13:16:22;2.15;;;1.13;;
19016;SDS011;9641;51.494;6.670;2022-09-09T13:18:58;0.90;;;0.50;;
19016;SDS011;9641;51.494;6.670;2022-09-09T13:21:33;2.53;;;0.68;;
19016;SDS011;9641;51.494;6.670;2022-09-09T13:24:01;0.93;;;0.50;;
19016;SDS011;9641;51.494;6.670;2022-09-09T13:26:29;3.25;;;0.70;;
19016;SDS011;9641;51.494;6.670;2022-09-09T13:29:07;3.60;;;0.75;;
19016;SDS011;9641;51.494;6.670;2022-09-09T13:31:42;3.50;;;0.77;;
19016;SDS011;9641;51.494;6.670;2022-09-09T13:34:12;3.85;;;1.02;;
19016;SDS011;9641;51.494;6.670;2022-09-09T13:36:41;1.88;;;0.50;;
19016;SDS011;9641;51.494;6.670;2022-09-09T13:39:15;1.58;;;0.68;;
19016;SDS011;9641;51.494;6.670;2022-09-09T13:41:43;3.15;;;1.02;;
19016;SDS011;9641;51.494;6.670;2022-09-09T13:44:17;4.25;;;0.90;;
19016;SDS011;9641;51.494;6.670;2022-09-09T13:46:59;2.40;;;0.68;;
19016;SDS011;9641;51.494;6.670;2022-09-09T13:49:30;2.30;;;0.77;;
19016;SDS011;9641;51.494;6.670;2022-09-09T13:52:06;1.35;;;0.63;;
19016;SDS011;9641;51.494;6.670;2022-09-09T13:54:36;2.28;;;0.82;;
19016;SDS011;9641;51.494;6.670;2022-09-09T13:57:04;1.95;;;0.70;;
19016;SDS011;9641;51.494;6.670;2022-09-09T13:59:42;4.57;;;0.75;;
19016;SDS011;9641;51.494;6.670;2022-09-09T14:02:10;2.10;;;0.93;;
19016;SDS011;9641;51.494;6.670;2022-09-09T14:04:41;2.22;;;1.08;;
19016;SDS011;9641;51.494;6.670;2022-09-09T14:07:08;2.15;;;1.00;;
19016;SDS011;9641;51.494;6.670;2022-09-09T14:09:38;2.17;;;0.68;;
19016;SDS011;9641;51.494;6.670;2022-09-09T14:12:05;1.25;;;0.70;;
19016;SDS011;9641;51.494;6.670;2022-09-09T14:14:34;2.65;;;1.05;;
19016;SDS011;9641;51.494;6.670;2022-09-09T14:17:04;2.08;;;0.80;;
19016;SDS011;9641;51.494;6.670;2022-09-09T14:19:37;2.08;;;0.80;;
19016;SDS011;9641;51.494;6.670;2022-09-09T14:22:11;1.98;;;1.02;;
19016;SDS011;9641;51.494;6.670;2022-09-09T14:24:39;2.38;;;0.93;;
19016;SDS011;9641;51.494;6.670;2022-09-09T14:27:09;2.42;;;1.02;;
19016;SDS011;9641;51.494;6.670;2022-09-09T14:29:37;2.50;;;0.60;;
19016;SDS011;9641;51.494;6.670;2022-09-09T14:32:04;0.97;;;0.70;;
19016;SDS011;9641;51.494;6.670;2022-09-09T14:34:33;3.87;;;1.00;;
19016;SDS011;9641;51.494;6.670;2022-09-09T14:37:06;2.43;;;1.17;;
19016;SDS011;9641;51.494;6.670;2022-09-09T14:39:35;2.40;;;0.90;;
19016;SDS011;9641;51.494;6.670;2022-09-09T14:53:06;4.70;;;0.70;;
19016;SDS011;9641;51.494;6.670;2022-09-09T15:01:25;2.30;;;1.03;;
19016;SDS011;9641;51.494;6.670;2022-09-09T15:03:54;3.77;;;1.10;;
19016;SDS011;9641;51.494;6.670;2022-09-09T15:06:23;1.63;;;1.00;;
19016;SDS011;9641;51.494;6.670;2022-09-09T15:08:53;1.33;;;0.83;;
19016;SDS011;9641;51.494;6.670;2022-09-09T15:11:23;2.17;;;0.90;;
19016;SDS011;9641;51.494;6.670;2022-09-09T15:13:53;4.80;;;1.00;;
19016;SDS011;9641;51.494;6.670;2022-09-09T15:16:24;7.20;;;1.00;;
19016;SDS011;9641;51.494;6.670;2022-09-09T16:00:22;0.75;;;0.30;;
19016;SDS011;9641;51.494;6.670;2022-09-09T16:02:50;0.60;;;0.47;;
19016;SDS011;9641;51.494;6.670;2022-09-09T16:05:18;3.00;;;0.68;;
19016;SDS011;9641;51.494;6.670;2022-09-09T16:07:46;2.20;;;0.80;;
19016;SDS011;9641;51.494;6.670;2022-09-09T16:10:13;2.58;;;0.57;;
19016;SDS011;9641;51.494;6.670;2022-09-09T16:12:40;1.33;;;0.55;;
19016;SDS011;9641;51.494;6.670;2022-09-09T16:15:08;0.95;;;0.75;;
19016;SDS011;9641;51.494;6.670;2022-09-09T16:17:37;1.48;;;0.90;;
19016;SDS011;9641;51.494;6.670;2022-09-09T16:20:04;0.55;;;0.50;;
19016;SDS011;9641;51.494;6.670;2022-09-09T16:22:34;2.67;;;1.05;;
19016;SDS011;9641;51.494;6.670;2022-09-09T16:25:05;3.50;;;1.60;;
19016;SDS011;9641;51.494;6.670;2022-09-09T16:28:11;3.97;;;1.45;;
19016;SDS011;9641;51.494;6.670;2022-09-09T16:30:38;2.83;;;1.05;;
19016;SDS011;9641;51.494;6.670;2022-09-09T16:33:08;1.13;;;1.00;;
19016;SDS011;9641;51.494;6.670;2022-09-09T16:35:40;2.72;;;1.00;;
19016;SDS011;9641;51.494;6.670;2022-09-09T16:38:08;2.80;;;0.85;;
19016;SDS011;9641;51.494;6.670;2022-09-09T16:40:35;3.50;;;0.80;;
19016;SDS011;9641;51.494;6.670;2022-09-09T16:43:02;2.47;;;0.70;;
19016;SDS011;9641;51.494;6.670;2022-09-09T16:45:31;1.65;;;0.85;;